Time;durP1;ratioP1;P1;durP2;ratioP2;P2;SDS_P1;SDS_P2;PMS_P1;PMS_P2;Temp;Humidity;BMP_temperature;BMP_pressure;BME280_temperature;BME280_humidity;BME280_pressure;Samples;Min_cycle;Max_cycle;Signal;HPM_P1;HPM_P2
2023/06/07 00:00:36;;;;;;;12.52;5.07;;;14.00;99.90;;;;;;4874796;29;20060;-77
2023/06/07 00:03:09;;;;;;;18.83;5.57;;;14.00;99.90;;;;;;4873676;29;20073;-77
2023/06/07 00:05:37;;;;;;;13.93;5.78;;;14.00;99.90;;;;;;4871453;29;20513;-78
2023/06/07 00:08:05;;;;;;;13.52;5.50;;;14.00;99.90;;;;;;4876393;29;20130;-78
2023/06/07 00:10:33;;;;;;;10.52;5.60;;;14.00;99.90;;;;;;4890345;29;20537;-78
2023/06/07 00:13:02;;;;;;;8.70;5.07;;;14.00;99.90;;;;;;4863474;29;20053;-78
2023/06/07 00:15:30;;;;;;;10.23;5.28;;;13.90;99.90;;;;;;4876401;29;20494;-78
2023/06/07 00:18:00;;;;;;;11.95;5.93;;;13.90;99.90;;;;;;4859035;29;20049;-79
2023/06/07 00:20:28;;;;;;;11.38;5.28;;;13.80;99.90;;;;;;4876290;29;20048;-78
2023/06/07 00:22:56;;;;;;;12.27;5.03;;;13.80;99.90;;;;;;4872478;29;20143;-78
2023/06/07 00:25:25;;;;;;;14.63;5.22;;;13.80;99.90;;;;;;4857706;29;20475;-78
2023/06/07 00:27:54;;;;;;;11.63;5.70;;;13.80;99.90;;;;;;4843765;29;20529;-78
2023/06/07 00:30:21;;;;;;;9.63;4.85;;;13.80;99.90;;;;;;4842527;29;20526;-78
2023/06/07 00:32:49;;;;;;;7.88;4.57;;;13.80;99.90;;;;;;4870697;29;20049;-78
2023/06/07 00:35:18;;;;;;;11.52;5.43;;;13.80;99.90;;;;;;4875537;29;20117;-78
2023/06/07 00:37:45;;;;;;;12.38;5.40;;;13.80;99.90;;;;;;4875441;29;20110;-77
2023/06/07 00:40:13;;;;;;;8.27;5.53;;;13.70;99.90;;;;;;4894377;29;20057;-78
2023/06/07 00:42:41;;;;;;;7.25;5.20;;;13.70;99.90;;;;;;4848720;29;20052;-78
2023/06/07 00:45:11;;;;;;;12.38;5.10;;;13.70;99.90;;;;;;4858774;29;20422;-77
2023/06/07 00:47:39;;;;;;;11.35;5.55;;;13.70;99.90;;;;;;4858848;29;20368;-78
2023/06/07 00:50:11;;;;;;;9.52;5.20;;;13.60;99.90;;;;;;4874219;29;20426;-78
2023/06/07 00:52:40;;;;;;;6.80;4.60;;;13.60;99.90;;;;;;4871256;29;20120;-78
2023/06/07 00:55:11;;;;;;;9.20;4.72;;;13.60;99.90;;;;;;4858602;29;20049;-78
2023/06/07 00:57:39;;;;;;;11.27;6.03;;;13.50;99.90;;;;;;4874619;29;20045;-78
2023/06/07 01:00:09;;;;;;;9.32;5.20;;;13.50;99.90;;;;;;4867239;29;20073;-77
2023/06/07 01:02:38;;;;;;;9.35;5.22;;;13.50;99.90;;;;;;4873960;29;20052;-78
2023/06/07 01:05:08;;;;;;;8.82;5.60;;;13.40;99.90;;;;;;4875017;29;20088;-78
2023/06/07 01:07:37;;;;;;;8.55;5.55;;;13.40;99.90;;;;;;4880261;29;20049;-77
2023/06/07 01:10:09;;;;;;;13.00;5.38;;;13.30;99.90;;;;;;4858756;29;20518;-78
2023/06/07 01:12:39;;;;;;;11.43;6.03;;;13.30;99.90;;;;;;4889644;29;20133;-77
2023/06/07 01:15:09;;;;;;;11.38;5.43;;;13.30;99.90;;;;;;4858486;29;20132;-77
2023/06/07 01:17:37;;;;;;;11.00;5.35;;;13.30;99.90;;;;;;4870699;29;20147;-77
2023/06/07 01:20:08;;;;;;;9.55;5.95;;;13.30;99.90;;;;;;4838857;29;20570;-77
2023/06/07 01:22:35;;;;;;;10.38;5.57;;;13.30;99.90;;;;;;4875304;29;20053;-77
2023/06/07 01:25:06;;;;;;;10.45;5.72;;;13.30;99.90;;;;;;4888286;29;20061;-77
2023/06/07 01:27:37;;;;;;;8.25;5.85;;;13.30;99.90;;;;;;4851711;29;20137;-77
2023/06/07 01:30:07;;;;;;;11.18;6.80;;;13.40;99.90;;;;;;4859010;29;20060;-77
2023/06/07 01:32:34;;;;;;;10.20;6.55;;;13.40;99.90;;;;;;4846784;29;20088;-78
2023/06/07 01:35:05;;;;;;;10.05;6.30;;;13.40;99.90;;;;;;4862608;29;20045;-78
2023/06/07 01:37:35;;;;;;;10.60;6.07;;;13.40;99.90;;;;;;4878595;29;20120;-78
2023/06/07 01:40:08;;;;;;;15.55;6.47;;;13.40;99.90;;;;;;4876996;29;20421;-78
2023/06/07 01:42:37;;;;;;;11.82;6.18;;;13.50;99.90;;;;;;4860370;29;20052;-78
2023/06/07 01:45:07;;;;;;;13.90;6.30;;;13.50;99.90;;;;;;4875036;29;20049;-78
2023/06/07 01:47:37;;;;;;;9.90;6.35;;;13.50;99.90;;;;;;4856209;29;20053;-78
2023/06/07 01:50:05;;;;;;;14.25;6.80;;;13.50;99.90;;;;;;4827586;29;20049;-78
2023/06/07 01:52:33;;;;;;;15.27;8.15;;;13.60;99.90;;;;;;4854946;29;20053;-77
2023/06/07 01:55:01;;;;;;;18.15;8.40;;;13.60;99.90;;;;;;4869991;29;20112;-77
2023/06/07 01:57:42;;;;;;;18.83;7.22;;;13.60;99.90;;;;;;4861724;29;20056;-77
2023/06/07 02:00:17;;;;;;;25.67;9.10;;;13.60;99.90;;;;;;4861563;29;20057;-76
2023/06/07 02:02:50;;;;;;;21.33;9.70;;;13.60;99.90;;;;;;4873957;29;20053;-76
2023/06/07 02:05:25;;;;;;;40.78;22.67;;;13.60;99.90;;;;;;4857212;29;20147;-78
2023/06/07 02:07:55;;;;;;;42.90;21.55;;;13.70;99.90;;;;;;4878087;29;20454;-76
2023/06/07 02:10:26;;;;;;;39.28;19.83;;;13.70;99.90;;;;;;4876840;29;20467;-76
2023/06/07 02:12:56;;;;;;;30.67;12.35;;;13.70;99.90;;;;;;4868446;29;20057;-77
2023/06/07 02:15:26;;;;;;;26.57;12.33;;;13.70;99.90;;;;;;4861206;29;20049;-77
2023/06/07 02:17:57;;;;;;;35.97;11.88;;;13.70;99.90;;;;;;4860574;29;20694;-77
2023/06/07 02:20:47;;;;;;;25.17;11.55;;;13.70;99.90;;;;;;4860073;29;20133;-77
2023/06/07 02:23:16;;;;;;;28.40;10.38;;;13.80;99.90;;;;;;4840605;29;20053;-77
2023/06/07 02:25:43;;;;;;;24.58;11.82;;;13.80;99.90;;;;;;4860883;29;20092;-77
2023/06/07 02:28:12;;;;;;;31.85;12.02;;;13.80;99.90;;;;;;4859913;29;20041;-77
2023/06/07 02:30:39;;;;;;;22.48;12.98;;;13.80;99.90;;;;;;4873569;29;20053;-77
2023/06/07 02:33:13;;;;;;;25.85;12.85;;;13.80;99.90;;;;;;4875794;29;20065;-76
2023/06/07 02:35:41;;;;;;;35.58;13.05;;;13.90;99.90;;;;;;4877318;29;20109;-76
2023/06/07 02:38:10;;;;;;;18.40;12.32;;;13.90;99.90;;;;;;4882832;29;20128;-77
2023/06/07 02:40:39;;;;;;;31.30;13.43;;;13.90;99.90;;;;;;4866536;29;20049;-77
2023/06/07 02:43:07;;;;;;;21.90;12.40;;;13.90;99.90;;;;;;4877461;29;20565;-77
2023/06/07 02:45:36;;;;;;;22.75;12.18;;;13.90;99.90;;;;;;4859155;29;20064;-77
2023/06/07 02:48:07;;;;;;;17.20;10.05;;;13.90;99.90;;;;;;4876186;29;20053;-76
2023/06/07 02:50:34;;;;;;;17.80;10.40;;;13.90;99.90;;;;;;4846532;29;20592;-77
2023/06/07 02:53:02;;;;;;;15.00;9.27;;;13.90;99.90;;;;;;4860064;29;20502;-76
2023/06/07 02:55:30;;;;;;;16.38;9.38;;;14.00;99.90;;;;;;4860589;29;20411;-76
2023/06/07 02:57:58;;;;;;;14.18;7.93;;;13.90;99.90;;;;;;4857985;29;20057;-77
2023/06/07 03:00:29;;;;;;;9.15;7.05;;;13.90;99.90;;;;;;4842736;29;20053;-78
2023/06/07 03:03:05;;;;;;;;;;;13.90;99.90;;;;;;4876003;29;20061;-77
2023/06/07 03:05:34;;;;;;;9.38;6.68;;;13.80;99.90;;;;;;4889624;29;19932;-77
2023/06/07 03:08:10;;;;;;;10.13;6.63;;;13.80;99.90;;;;;;4854758;29;20101;-78
2023/06/07 03:10:38;;;;;;;12.88;5.80;;;13.80;99.90;;;;;;4859651;29;20585;-78
2023/06/07 03:13:09;;;;;;;9.25;5.53;;;13.70;99.90;;;;;;4858846;29;20049;-78
2023/06/07 03:15:40;;;;;;;8.55;4.40;;;13.60;99.90;;;;;;4876071;29;20108;-77
2023/06/07 03:18:15;;;;;;;6.95;4.40;;;13.60;99.90;;;;;;4854173;29;20352;-77
2023/06/07 03:20:48;;;;;;;8.55;5.00;;;13.60;99.90;;;;;;4860290;29;20064;-78
2023/06/07 03:23:17;;;;;;;7.38;4.25;;;13.60;99.90;;;;;;4875841;29;20060;-77
2023/06/07 03:25:49;;;;;;;8.70;4.72;;;13.50;99.90;;;;;;4856431;29;20063;-77
2023/06/07 03:28:23;;;;;;;6.22;3.78;;;13.50;99.90;;;;;;4891122;29;20049;-77
2023/06/07 03:30:51;;;;;;;5.60;4.82;;;13.50;99.90;;;;;;4875254;29;20056;-77
2023/06/07 03:33:27;;;;;;;4.93;4.43;;;13.50;99.90;;;;;;4844674;29;20053;-77
2023/06/07 03:35:58;;;;;;;4.72;3.40;;;13.50;99.90;;;;;;4855235;29;20136;-77
2023/06/07 03:38:32;;;;;;;6.15;3.38;;;13.50;99.90;;;;;;4890964;29;20060;-77
2023/06/07 03:41:00;;;;;;;4.72;4.22;;;13.50;99.90;;;;;;4875411;29;20399;-76
2023/06/07 03:43:35;;;;;;;4.32;2.80;;;13.50;99.90;;;;;;4857560;29;20061;-76
2023/06/07 03:46:03;;;;;;;5.65;3.33;;;13.40;99.90;;;;;;4875482;29;20080;-76
2023/06/07 03:48:32;;;;;;;3.53;2.92;;;13.40;99.90;;;;;;4844631;29;20051;-77
2023/06/07 03:51:01;;;;;;;5.55;2.70;;;13.30;99.90;;;;;;4860227;29;20049;-76
2023/06/07 03:53:30;;;;;;;5.45;2.80;;;13.30;99.90;;;;;;4871355;29;20049;-77
2023/06/07 03:55:57;;;;;;;2.80;2.47;;;13.30;99.90;;;;;;4859259;29;20057;-76
2023/06/07 03:58:27;;;;;;;4.30;2.33;;;13.30;99.90;;;;;;4859118;29;20056;-76
2023/06/07 04:00:55;;;;;;;3.30;3.00;;;13.30;99.90;;;;;;4856420;29;20584;-77
2023/06/07 04:03:27;;;;;;;5.82;2.85;;;13.30;99.90;;;;;;4874675;29;20060;-76
2023/06/07 04:05:59;;;;;;;4.13;2.65;;;13.30;99.90;;;;;;4858693;29;20548;-77
2023/06/07 04:08:28;;;;;;;5.25;3.22;;;13.30;99.90;;;;;;4889519;29;20410;-77
2023/06/07 04:10:55;;;;;;;2.80;2.60;;;13.30;99.90;;;;;;4856575;29;20501;-77
2023/06/07 04:13:23;;;;;;;4.45;3.95;;;13.30;99.90;;;;;;4858900;29;20108;-77
2023/06/07 04:15:50;;;;;;;5.45;3.55;;;13.30;99.90;;;;;;4874506;29;20057;-77
2023/06/07 04:18:19;;;;;;;3.40;2.80;;;13.30;99.90;;;;;;4858822;29;20045;-78
2023/06/07 04:20:47;;;;;;;3.67;2.42;;;13.30;99.90;;;;;;4871443;29;20060;-78
2023/06/07 04:23:22;;;;;;;3.22;2.83;;;13.30;99.90;;;;;;4874513;29;20147;-76
2023/06/07 04:25:54;;;;;;;3.75;2.20;;;13.40;99.90;;;;;;4858899;29;20048;-78
2023/06/07 04:28:24;;;;;;;3.85;2.53;;;13.30;99.90;;;;;;4880667;29;20563;-78
2023/06/07 04:30:58;;;;;;;3.28;2.10;;;13.40;99.90;;;;;;4889944;29;20053;-78
2023/06/07 04:33:27;;;;;;;3.78;2.33;;;13.50;99.90;;;;;;4874190;29;20060;-78
2023/06/07 04:35:57;;;;;;;4.43;2.42;;;13.50;99.90;;;;;;4859071;29;20061;-77
2023/06/07 04:38:29;;;;;;;4.03;2.40;;;13.60;99.90;;;;;;4845121;29;20430;-76
2023/06/07 04:41:07;;;;;;;3.60;2.40;;;13.60;99.90;;;;;;4845076;29;20060;-78
2023/06/07 04:43:48;;;;;;;3.05;1.70;;;13.60;99.90;;;;;;4839634;29;20140;-78
2023/06/07 04:46:20;;;;;;;1.92;1.77;;;13.70;99.90;;;;;;4853781;29;20072;-78
2023/06/07 04:48:48;;;;;;;3.88;1.90;;;13.70;99.90;;;;;;4855689;29;20068;-77
2023/06/07 04:51:20;;;;;;;2.85;2.03;;;13.80;99.90;;;;;;4848333;29;20053;-78
2023/06/07 04:53:58;;;;;;;2.97;1.63;;;13.80;99.90;;;;;;4850937;29;20511;-78
2023/06/07 04:56:27;;;;;;;4.05;2.20;;;13.80;99.90;;;;;;4881704;29;20461;-78
2023/06/07 04:58:58;;;;;;;2.42;2.10;;;13.90;99.90;;;;;;4847771;29;20468;-78
2023/06/07 05:01:33;;;;;;;1.80;1.55;;;14.00;99.90;;;;;;4856491;29;20045;-78
2023/06/07 05:04:02;;;;;;;5.90;2.13;;;14.00;99.90;;;;;;4843409;29;20057;-77
2023/06/07 05:06:39;;;;;;;3.92;1.50;;;14.00;99.90;;;;;;4887800;29;20143;-77
2023/06/07 05:09:12;;;;;;;3.55;1.77;;;14.10;99.90;;;;;;4855441;29;20061;-78
2023/06/07 05:11:40;;;;;;;4.63;1.83;;;14.20;99.90;;;;;;4859214;29;20053;-78
2023/06/07 05:14:07;;;;;;;5.90;2.20;;;14.20;99.90;;;;;;4857480;29;20045;-75
2023/06/07 05:16:35;;;;;;;1.88;1.58;;;14.30;99.90;;;;;;4869334;29;20048;-77
2023/06/07 05:19:05;;;;;;;1.17;1.00;;;14.40;99.90;;;;;;4846331;29;20333;-76
2023/06/07 05:21:37;;;;;;;2.55;1.35;;;14.60;99.90;;;;;;4877376;29;20548;-76
2023/06/07 05:24:07;;;;;;;5.28;2.50;;;14.70;99.90;;;;;;4845140;29;20063;-76
2023/06/07 05:26:36;;;;;;;3.45;1.40;;;14.90;99.90;;;;;;4876083;29;20430;-77
2023/06/07 05:29:04;;;;;;;2.40;1.30;;;15.10;99.90;;;;;;4842017;29;20053;-77
2023/06/07 05:31:36;;;;;;;3.80;1.55;;;15.20;99.90;;;;;;4872911;29;20136;-77
2023/06/07 05:34:06;;;;;;;3.20;1.48;;;15.30;99.90;;;;;;4876629;29;20052;-77
2023/06/07 05:36:35;;;;;;;3.45;1.63;;;15.50;99.90;;;;;;4861859;29;20045;-76
2023/06/07 05:39:05;;;;;;;1.80;1.23;;;15.70;99.90;;;;;;4861491;29;20053;-76
2023/06/07 05:41:37;;;;;;;4.78;1.23;;;16.00;99.90;;;;;;4891140;29;20097;-76
2023/06/07 05:44:08;;;;;;;2.15;1.08;;;16.40;99.90;;;;;;4892701;29;20061;-78
2023/06/07 05:46:38;;;;;;;4.20;1.40;;;17.00;99.90;;;;;;4892312;29;20065;-76
2023/06/07 05:49:06;;;;;;;1.52;1.10;;;17.50;99.90;;;;;;4892672;29;20414;-77
2023/06/07 05:51:34;;;;;;;2.30;1.02;;;17.90;99.10;;;;;;4859901;29;20072;-78
2023/06/07 05:54:01;;;;;;;3.35;1.20;;;18.30;95.60;;;;;;4877299;29;20415;-78
2023/06/07 05:56:29;;;;;;;2.38;1.55;;;18.70;94.40;;;;;;4874598;29;20052;-76
2023/06/07 05:58:58;;;;;;;1.85;1.27;;;19.00;91.40;;;;;;4847789;29;20053;-77
2023/06/07 06:01:26;;;;;;;4.30;1.00;;;19.40;90.00;;;;;;4860506;29;20420;-76
2023/06/07 06:03:53;;;;;;;4.38;2.33;;;19.80;86.20;;;;;;4877014;29;20475;-77
2023/06/07 06:06:21;;;;;;;6.80;2.72;;;20.20;82.00;;;;;;4878160;29;20597;-80
2023/06/07 06:08:48;;;;;;;3.50;1.40;;;20.70;79.00;;;;;;4872959;29;20049;-77
2023/06/07 06:11:16;;;;;;;1.15;0.85;;;20.90;77.30;;;;;;4878075;29;20137;-76
2023/06/07 06:13:44;;;;;;;2.38;1.23;;;21.20;76.90;;;;;;4873062;29;20064;-77
2023/06/07 06:16:13;;;;;;;3.25;1.77;;;21.40;74.20;;;;;;4874605;29;20560;-74
2023/06/07 06:18:43;;;;;;;4.07;1.30;;;21.70;72.80;;;;;;4872879;29;20135;-75
2023/06/07 06:21:10;;;;;;;2.53;1.40;;;22.00;72.10;;;;;;4871139;29;20054;-76
2023/06/07 06:23:38;;;;;;;1.20;1.10;;;22.20;71.60;;;;;;4868841;29;20515;-76
2023/06/07 06:26:05;;;;;;;3.40;1.30;;;22.40;69.30;;;;;;4867139;29;20088;-77
2023/06/07 06:28:34;;;;;;;4.15;1.20;;;22.70;66.80;;;;;;4855931;29;20065;-77
2023/06/07 06:31:03;;;;;;;2.80;0.98;;;22.80;63.20;;;;;;4855467;29;20057;-75
2023/06/07 06:33:32;;;;;;;4.22;1.10;;;23.00;61.40;;;;;;4872297;29;20060;-76
2023/06/07 06:36:00;;;;;;;6.00;1.13;;;23.30;60.70;;;;;;4838089;29;20584;-73
2023/06/07 06:38:27;;;;;;;2.28;1.13;;;23.30;60.00;;;;;;4867855;29;20140;-77
2023/06/07 06:40:55;;;;;;;1.50;1.05;;;23.40;58.60;;;;;;4872960;29;20085;-76
2023/06/07 06:43:22;;;;;;;4.95;1.08;;;23.60;59.50;;;;;;4865654;29;20060;-75
2023/06/07 06:45:55;;;;;;;1.50;1.13;;;24.00;59.90;;;;;;4857854;29;20057;-75
2023/06/07 06:48:23;;;;;;;1.23;1.13;;;24.30;60.20;;;;;;4876995;29;20063;-75
2023/06/07 06:50:52;;;;;;;1.13;1.00;;;24.40;61.50;;;;;;4873313;29;20060;-74
2023/06/07 06:53:19;;;;;;;2.05;0.85;;;24.30;58.70;;;;;;4873870;29;20417;-76
2023/06/07 06:55:48;;;;;;;2.88;1.05;;;24.40;58.40;;;;;;4869076;29;20132;-75
2023/06/07 06:58:16;;;;;;;1.10;1.00;;;24.20;57.40;;;;;;4874612;29;20101;-76
2023/06/07 07:00:43;;;;;;;4.00;1.15;;;24.30;58.70;;;;;;4858138;29;20147;-80
2023/06/07 07:03:11;;;;;;;3.40;1.00;;;24.40;56.90;;;;;;4872038;29;20049;-79
2023/06/07 07:05:38;;;;;;;5.88;1.20;;;24.50;57.00;;;;;;4871807;29;20045;-78
2023/06/07 07:08:07;;;;;;;2.58;0.95;;;24.70;57.20;;;;;;4870745;29;20475;-77
2023/06/07 07:10:35;;;;;;;1.98;1.20;;;24.90;57.30;;;;;;4874205;29;20053;-77
2023/06/07 07:13:03;;;;;;;2.05;1.17;;;25.00;56.20;;;;;;4871258;29;20075;-76
2023/06/07 07:15:30;;;;;;;3.47;1.17;;;25.00;56.40;;;;;;4875515;29;20112;-77
2023/06/07 07:17:58;;;;;;;2.42;1.08;;;25.20;55.70;;;;;;4876335;29;20056;-76
2023/06/07 07:20:28;;;;;;;3.88;1.00;;;25.50;54.60;;;;;;4843640;29;20084;-77
2023/06/07 07:22:55;;;;;;;1.98;1.08;;;25.70;54.20;;;;;;4856556;29;20045;-77
2023/06/07 07:25:24;;;;;;;2.17;1.27;;;25.80;54.60;;;;;;4857144;29;20085;-79
2023/06/07 07:27:52;;;;;;;4.95;1.13;;;25.80;54.20;;;;;;4862610;29;20183;-78
2023/06/07 07:30:21;;;;;;;4.43;1.52;;;26.20;53.20;;;;;;4872198;29;20044;-78
2023/06/07 07:32:50;;;;;;;3.42;1.15;;;26.20;53.10;;;;;;4875458;29;20060;-79
2023/06/07 07:35:18;;;;;;;3.53;1.15;;;26.20;52.70;;;;;;4873559;29;20096;-77
2023/06/07 07:37:46;;;;;;;2.05;1.48;;;26.30;52.60;;;;;;4865542;29;20049;-80
2023/06/07 07:40:14;;;;;;;2.97;1.10;;;26.30;53.40;;;;;;4869062;29;20068;-81
2023/06/07 07:42:43;;;;;;;1.73;1.50;;;26.50;52.80;;;;;;4871484;29;20140;-81
2023/06/07 07:45:11;;;;;;;1.15;1.00;;;26.80;53.10;;;;;;4850979;29;20056;-80
2023/06/07 07:47:40;;;;;;;1.95;1.20;;;26.90;51.30;;;;;;4858601;29;20435;-79
2023/06/07 07:50:10;;;;;;;0.90;0.80;;;27.10;51.60;;;;;;4852015;29;20049;-79
2023/06/07 07:52:37;;;;;;;4.63;1.00;;;27.00;49.30;;;;;;4857317;29;20513;-83
2023/06/07 07:55:08;;;;;;;4.20;0.85;;;26.70;50.20;;;;;;4870030;29;20470;-80
2023/06/07 07:57:36;;;;;;;3.05;1.00;;;26.70;49.20;;;;;;4857784;29;20503;-82
2023/06/07 08:00:09;;;;;;;5.00;1.05;;;26.80;50.80;;;;;;4865307;29;20518;-82
2023/06/07 08:02:43;;;;;;;2.75;1.05;;;26.70;51.20;;;;;;4859941;29;20068;-83
2023/06/07 08:05:10;;;;;;;6.40;1.38;;;27.00;52.50;;;;;;4868465;29;20398;-83
2023/06/07 08:07:40;;;;;;;4.75;1.13;;;27.20;53.00;;;;;;4870301;29;20053;-82
2023/06/07 08:10:11;;;;;;;4.75;1.20;;;27.30;53.00;;;;;;4874309;29;20064;-82
2023/06/07 08:12:41;;;;;;;3.00;1.25;;;27.40;51.70;;;;;;4871101;29;20045;-83
2023/06/07 08:15:12;;;;;;;1.73;1.20;;;27.30;51.80;;;;;;4842735;29;20084;-81
2023/06/07 08:17:40;;;;;;;2.97;1.38;;;27.30;52.20;;;;;;4873759;29;20132;-82
2023/06/07 08:20:09;;;;;;;1.17;1.00;;;27.70;51.80;;;;;;4875790;29;20060;-82
2023/06/07 08:22:38;;;;;;;4.70;2.33;;;28.00;51.00;;;;;;4862263;29;20145;-84
2023/06/07 08:25:07;;;;;;;6.63;1.00;;;27.90;50.80;;;;;;4869259;29;20153;-80
2023/06/07 08:27:34;;;;;;;2.15;0.80;;;27.90;52.80;;;;;;4871598;29;20067;-80
2023/06/07 08:30:02;;;;;;;1.95;1.30;;;28.00;50.40;;;;;;4875218;29;20093;-80
2023/06/07 08:32:35;;;;;;;3.45;1.17;;;27.60;51.80;;;;;;4869189;29;20522;-81
2023/06/07 08:35:05;;;;;;;3.92;1.42;;;27.60;51.00;;;;;;4838757;29;21079;-78
2023/06/07 08:37:33;;;;;;;1.52;1.15;;;27.70;50.90;;;;;;4839472;29;20052;-78
2023/06/07 08:40:04;;;;;;;2.67;1.08;;;27.80;51.40;;;;;;4869701;29;20046;-78
2023/06/07 08:42:32;;;;;;;2.63;1.00;;;28.20;50.30;;;;;;4868335;29;20503;-78
2023/06/07 08:45:01;;;;;;;2.47;0.98;;;28.00;50.50;;;;;;4875806;29;20049;-79
2023/06/07 08:47:35;;;;;;;5.47;1.15;;;27.90;50.20;;;;;;4859975;29;20637;-79
2023/06/07 08:50:04;;;;;;;2.35;1.08;;;28.30;51.50;;;;;;4865826;29;20049;-79
2023/06/07 08:52:35;;;;;;;4.43;0.90;;;28.20;49.90;;;;;;4839284;29;20076;-78
2023/06/07 08:55:06;;;;;;;4.95;1.13;;;28.20;50.00;;;;;;4859438;29;20183;-79
2023/06/07 08:57:34;;;;;;;1.13;1.02;;;28.40;50.00;;;;;;4857883;29;20060;-79
2023/06/07 09:00:06;;;;;;;3.15;0.80;;;28.70;48.10;;;;;;4878726;29;20053;-81
2023/06/07 09:02:36;;;;;;;1.00;0.90;;;28.60;48.90;;;;;;4888524;29;20510;-83
2023/06/07 09:05:05;;;;;;;3.97;0.90;;;28.30;50.40;;;;;;4876571;29;20052;-82
2023/06/07 09:07:36;;;;;;;2.85;1.42;;;28.30;50.00;;;;;;4860089;29;20306;-82
2023/06/07 09:10:05;;;;;;;9.73;1.10;;;28.50;50.90;;;;;;4866574;29;20064;-80
2023/06/07 09:12:33;;;;;;;3.15;1.33;;;28.60;49.30;;;;;;4891921;29;20113;-84
2023/06/07 09:15:01;;;;;;;2.00;0.80;;;28.70;48.60;;;;;;4878334;29;20105;-82
2023/06/07 09:20:27;;;;;;;4.43;0.80;;;28.90;49.60;;;;;;5141481;27;20683;-83
2023/06/07 09:23:04;;;;;;;2.42;0.80;;;29.40;50.00;;;;;;5127693;27;20043;-84
2023/06/07 09:25:32;;;;;;;2.95;0.90;;;29.60;48.90;;;;;;5124652;27;20043;-83
2023/06/07 09:28:03;;;;;;;2.65;1.20;;;29.60;48.50;;;;;;5143941;27;20051;-87
2023/06/07 09:30:31;;;;;;;2.38;1.20;;;29.80;48.80;;;;;;5131417;27;20049;-86
2023/06/07 09:32:59;;;;;;;1.80;1.20;;;30.10;48.80;;;;;;5127308;27;20049;-85
2023/06/07 09:35:28;;;;;;;7.80;1.98;;;30.20;47.80;;;;;;5146012;27;20498;-88
2023/06/07 09:37:57;;;;;;;6.07;1.27;;;30.10;47.40;;;;;;5146120;27;20328;-87
2023/06/07 09:40:25;;;;;;;1.58;1.02;;;30.30;48.90;;;;;;5146068;27;20051;-86
2023/06/07 09:43:00;;;;;;;5.32;1.05;;;30.40;47.70;;;;;;5136002;27;20403;-81
2023/06/07 09:45:29;;;;;;;4.40;1.10;;;30.60;48.20;;;;;;5144218;27;20131;-80
2023/06/07 09:48:17;;;;;;;2.80;1.10;;;30.40;47.00;;;;;;5145779;27;20525;-82
2023/06/07 09:51:07;;;;;;;4.32;0.82;;;30.50;47.00;;;;;;5134473;27;20047;-81
2023/06/07 09:53:51;;;;;;;2.78;0.85;;;30.60;46.90;;;;;;5145596;27;20099;-76
2023/06/07 09:56:20;;;;;;;3.50;0.93;;;30.50;45.30;;;;;;5125777;27;20072;-81
2023/06/07 09:58:51;;;;;;;2.22;0.80;;;30.00;46.80;;;;;;5144158;27;20070;-83
2023/06/07 10:01:37;;;;;;;5.22;0.93;;;30.00;47.60;;;;;;5122631;27;20476;-83
2023/06/07 10:04:07;;;;;;;2.13;0.80;;;30.00;48.70;;;;;;5139670;27;20100;-79
2023/06/07 10:06:38;;;;;;;2.65;0.82;;;29.90;47.70;;;;;;5137784;27;20043;-82
2023/06/07 10:09:07;;;;;;;;;;;30.20;47.50;;;;;;5145605;27;20054;-87
2023/06/07 10:11:36;;;;;;;1.65;1.35;;;29.90;47.70;;;;;;5146298;27;19923;-77
2023/06/07 10:14:07;;;;;;;1.23;1.13;;;30.00;48.20;;;;;;5142816;27;20430;-76
2023/06/07 10:16:37;;;;;;;2.83;1.05;;;30.30;48.40;;;;;;5144610;27;20047;-79
2023/06/07 10:19:17;;;;;;;2.58;0.80;;;30.50;48.00;;;;;;5141184;27;20094;-81
2023/06/07 10:21:51;;;;;;;1.45;0.73;;;30.60;47.10;;;;;;5134508;27;20050;-82
2023/06/07 10:24:24;;;;;;;3.72;0.93;;;30.60;46.20;;;;;;5137048;27;20067;-81
2023/06/07 10:26:55;;;;;;;1.75;0.93;;;30.50;46.50;;;;;;5134226;27;20086;-78
2023/06/07 10:29:36;;;;;;;1.20;0.93;;;30.50;46.40;;;;;;5135727;27;20050;-79
2023/06/07 10:32:12;;;;;;;2.10;0.80;;;30.50;46.70;;;;;;5121458;27;20043;-77
2023/06/07 10:34:40;;;;;;;4.40;1.08;;;30.20;47.50;;;;;;5124063;27;20043;-77
2023/06/07 10:37:09;;;;;;;0.65;0.63;;;30.30;47.60;;;;;;5110988;27;20132;-78
2023/06/07 10:39:39;;;;;;;3.65;0.70;;;30.40;47.30;;;;;;5120780;27;20142;-79
2023/06/07 10:42:07;;;;;;;2.10;0.80;;;30.50;47.50;;;;;;5125167;27;20523;-79
2023/06/07 10:44:37;;;;;;;8.38;1.08;;;30.80;46.30;;;;;;5116880;27;20075;-82
2023/06/07 10:47:27;;;;;;;0.95;0.73;;;31.20;46.30;;;;;;5128845;27;20071;-84
2023/06/07 10:49:55;;;;;;;3.67;1.00;;;31.40;45.50;;;;;;5102442;27;20401;-82
2023/06/07 10:52:26;;;;;;;1.45;0.95;;;31.10;45.30;;;;;;5122564;27;20138;-84
2023/06/07 10:54:54;;;;;;;8.57;1.00;;;31.20;45.40;;;;;;5131914;27;20130;-82
2023/06/07 10:57:38;;;;;;;1.63;1.15;;;31.00;46.30;;;;;;5129570;27;20729;-81
2023/06/07 11:00:28;;;;;;;0.70;0.70;;;31.00;45.70;;;;;;5108725;27;20088;-83
2023/06/07 11:03:40;;;;;;;0.93;0.80;;;31.20;46.20;;;;;;5127980;27;20053;-82
2023/06/07 11:06:09;;;;;;;1.87;1.00;;;31.10;46.10;;;;;;5116596;27;20043;-77
2023/06/07 11:08:39;;;;;;;2.22;0.65;;;31.00;46.60;;;;;;5120656;27;20362;-78
2023/06/07 11:11:52;;;;;;;2.33;1.00;;;31.00;46.70;;;;;;5116223;27;20408;-77
2023/06/07 11:14:20;;;;;;;1.92;0.70;;;31.20;46.10;;;;;;5128687;27;20047;-83
2023/06/07 11:16:47;;;;;;;7.05;0.90;;;30.60;47.40;;;;;;5126146;27;20133;-80
2023/06/07 11:19:18;;;;;;;4.35;0.70;;;30.80;47.00;;;;;;5117923;27;20119;-79
2023/06/07 11:22:07;;;;;;;4.32;1.23;;;31.30;46.00;;;;;;5130114;27;20058;-81
2023/06/07 11:24:40;;;;;;;3.28;0.80;;;31.50;45.10;;;;;;5131413;27;20051;-80
2023/06/07 11:27:14;;;;;;;;;;;31.60;44.80;;;;;;5117067;27;20044;-79
2023/06/07 11:29:43;;;;;;;2.10;0.90;;;31.70;45.60;;;;;;5125095;27;19923;-80
2023/06/07 11:32:11;;;;;;;1.90;0.77;;;32.10;44.70;;;;;;5126013;27;20043;-79
2023/06/07 11:34:39;;;;;;;1.08;0.80;;;32.40;44.40;;;;;;5100832;27;20039;-80
2023/06/07 11:37:13;;;;;;;5.80;1.00;;;32.40;43.80;;;;;;5123894;27;20042;-82
2023/06/07 11:39:42;;;;;;;2.58;0.95;;;32.00;44.90;;;;;;5126733;27;20499;-84
2023/06/07 11:42:10;;;;;;;1.13;0.80;;;32.10;44.20;;;;;;5130700;27;20051;-83
2023/06/07 11:44:38;;;;;;;2.95;0.75;;;31.90;44.70;;;;;;5123539;27;20057;-82
2023/06/07 11:47:07;;;;;;;4.88;1.10;;;31.70;44.80;;;;;;5116976;27;20035;-76
2023/06/07 11:49:40;;;;;;;1.27;1.08;;;31.80;45.20;;;;;;5125266;27;20487;-83
2023/06/07 11:52:10;;;;;;;1.60;1.05;;;32.00;45.40;;;;;;5115374;27;20047;-79
2023/06/07 11:54:44;;;;;;;9.45;1.40;;;32.60;44.60;;;;;;5119988;27;20095;-78
2023/06/07 11:57:15;;;;;;;2.63;0.85;;;32.70;44.70;;;;;;5112423;27;20419;-81
2023/06/07 11:59:45;;;;;;;2.15;0.63;;;32.90;43.90;;;;;;5143440;27;20059;-87
2023/06/07 12:02:15;;;;;;;3.58;0.85;;;32.90;43.40;;;;;;5105974;27;20569;-82
2023/06/07 12:04:44;;;;;;;7.78;0.90;;;32.60;43.70;;;;;;5121281;27;20703;-79
2023/06/07 12:07:21;;;;;;;1.13;0.82;;;32.70;44.60;;;;;;5121836;27;20499;-78
2023/06/07 12:09:55;;;;;;;2.70;1.02;;;32.80;43.90;;;;;;5119881;27;20054;-77
2023/06/07 12:12:23;;;;;;;1.25;0.50;;;32.70;43.20;;;;;;5129624;27;20047;-83
2023/06/07 12:15:00;;;;;;;6.72;1.13;;;32.60;43.70;;;;;;5126112;27;20533;-81
2023/06/07 12:17:34;;;;;;;1.02;0.60;;;32.60;43.70;;;;;;5123431;27;20134;-76
2023/06/07 12:20:11;;;;;;;1.48;0.70;;;32.50;43.90;;;;;;5122523;27;20055;-78
2023/06/07 12:22:39;;;;;;;2.95;0.70;;;32.60;43.80;;;;;;5122358;27;20570;-77
2023/06/07 12:25:15;;;;;;;3.90;1.13;;;33.00;43.40;;;;;;5113580;27;20328;-77
2023/06/07 12:27:47;;;;;;;4.55;0.73;;;33.10;43.30;;;;;;5131353;27;20047;-77
2023/06/07 12:30:14;;;;;;;3.33;0.88;;;33.10;43.30;;;;;;5130853;27;20082;-76
2023/06/07 12:32:43;;;;;;;2.78;0.90;;;33.30;43.10;;;;;;5116015;27;20040;-78
2023/06/07 12:35:13;;;;;;;8.25;1.00;;;33.50;43.90;;;;;;5123446;27;20050;-77
2023/06/07 12:37:42;;;;;;;3.42;1.25;;;33.40;43.70;;;;;;5129436;27;20074;-77
2023/06/07 12:40:11;;;;;;;6.60;0.90;;;33.50;43.20;;;;;;5125620;27;20039;-79
2023/06/07 12:42:40;;;;;;;5.63;0.85;;;33.70;43.10;;;;;;5113089;27;20057;-79
2023/06/07 12:45:09;;;;;;;3.65;0.90;;;33.40;42.20;;;;;;5109734;28;20101;-80
2023/06/07 12:47:37;;;;;;;4.20;1.50;;;33.40;42.10;;;;;;5123233;27;20043;-78
2023/06/07 12:50:06;;;;;;;3.15;0.77;;;33.40;41.90;;;;;;5124710;27;20412;-79
2023/06/07 12:52:34;;;;;;;1.95;0.82;;;32.90;42.30;;;;;;5127800;27;20457;-81
2023/06/07 12:55:03;;;;;;;2.85;0.90;;;32.60;43.10;;;;;;5122389;27;20055;-80
2023/06/07 12:57:33;;;;;;;4.43;0.90;;;32.70;43.20;;;;;;5110093;28;20469;-79
2023/06/07 13:00:00;;;;;;;1.80;1.08;;;33.10;43.30;;;;;;5113260;27;20043;-81
2023/06/07 13:02:28;;;;;;;5.32;0.70;;;33.10;42.40;;;;;;5110072;28;20047;-79
2023/06/07 13:04:56;;;;;;;0.65;0.65;;;33.10;42.20;;;;;;5126264;27;20395;-79